Tropical Cyclones
[Index]
Main Index Home Page Stock Weather Photos Extreme Storms Discussion Storm News and Storm Chasing Reports Tropical Cyclones / Hurricanes / Typhoons Weather Data and Links Wild Fires / Bushfires Weather Observation Techniques Weather Picture Catalogue Tornado Pictures and Reports Stock Video Footage and DVDs for sale
Season 1998-1999 Tropical Cyclone ELAINE Track Map
Season 1998-1999 Summaries (Operational Data): [AU] [SIO] [SPAC] [SH]
<<- Previous TC | 1998-1999 Season | Next TC ->>

click for intensity scale information  Lat/long Grid: Show Hide

 Date Labels: Show Hide

Operational Tropical Cyclone Data : JTWC Advisories

Name: ELAINE
Number: 9928

14 Mar 1999 18:00 UTC to 20 Mar 1999 04:00 UTC

    date/time    lat    long     hPa   cat  kts
1999-03-14 18   13.0   120.0    1004                     
1999-03-15 18   13.0   118.0    1002                     
1999-03-16 00   13.3   114.8                             
1999-03-16 18   14.9   114.1                             
1999-03-16 21   15.3   113.5     997         30          
1999-03-17 00   15.5   112.8     985    2    50          
1999-03-17 04   16.1   112.3     975    2    60          
1999-03-17 10   16.7   111.7     975    2    60          
1999-03-17 16   17.4   111.2     960    3    75          
1999-03-17 22   18.5   110.9     960    3    75          
1999-03-18 04   19.4   110.7     960    3    70          
1999-03-18 10   20.3   110.6     965    3    70          
1999-03-18 16   21.1   110.6     965    3    70          
1999-03-18 22   21.5   110.8     970    3    65          
1999-03-19 04   24.0   111.0     990    1    45          
1999-03-19 10   24.8   111.4     990    1    45          
1999-03-19 16   25.8   111.8     990    1    45          
1999-03-19 22   26.9   112.9     996    1    40          
1999-03-20 04   28.6   115.2                             
Winds are 10-min average.

Tropical cyclone tracks developed by Michael Bath using operational warnings and advisories and Google Maps.


[Australian Severe Weather index] [Copyright Notice] [Email Contacts] [Search This Site] [Privacy Policy]
Document: tropical_cyclone_elaine.htm Updated: 28 May 2013